Time;durP1;ratioP1;P1;durP2;ratioP2;P2;SDS_P1;SDS_P2;PMS_P1;PMS_P2;Temp;Humidity;BMP_temperature;BMP_pressure;BME280_temperature;BME280_humidity;BME280_pressure;Samples;Min_cycle;Max_cycle;Signal;HPM_P1;HPM_P2
2022/01/27 00:00:38;;;;;;;0.75;0.60;;;;;;;3.17;67.17;100736.56;4391411;32;33856;-71
2022/01/27 00:03:32;;;;;;;18.95;9.88;;;;;;;3.85;64.97;100734.94;4379456;32;34125;-68
2022/01/27 00:06:06;;;;;;;1.90;1.77;;;;;;;3.12;67.21;100738.13;4391265;32;34092;-71
2022/01/27 00:08:49;;;;;;;17.77;10.13;;;;;;;3.29;66.87;100739.69;4391285;32;33842;-70
2022/01/27 00:11:17;;;;;;;1.55;1.10;;;;;;;2.88;67.85;100737.22;4391943;32;33360;-68
2022/01/27 00:13:48;;;;;;;17.25;9.07;;;;;;;3.13;66.98;100737.09;4378027;32;33397;-68
2022/01/27 00:16:21;;;;;;;17.35;9.18;;;;;;;3.02;67.03;100738.31;4378700;32;34999;-69
2022/01/27 00:18:50;;;;;;;17.52;9.45;;;;;;;2.88;68.03;100751.47;4378802;32;34061;-68
2022/01/27 00:21:30;;;;;;;17.17;9.45;;;;;;;3.23;66.72;100738.56;4392182;32;33786;-68
2022/01/27 00:23:58;;;;;;;17.42;8.60;;;;;;;3.38;66.08;100748.53;4376782;32;34555;-68
2022/01/27 00:26:25;;;;;;;17.15;9.07;;;;;;;3.59;64.83;100734.47;4391898;32;34753;-68
2022/01/27 00:28:52;;;;;;;16.95;9.10;;;;;;;3.67;64.83;100726.34;4391926;32;33835;-69
2022/01/27 00:31:21;;;;;;;1.37;1.27;;;;;;;3.21;65.65;100720.97;4391696;32;34492;-69
2022/01/27 00:33:50;;;;;;;19.25;9.77;;;;;;;3.12;66.52;100722.03;4377787;32;34022;-68
2022/01/27 00:36:18;;;;;;;18.20;9.45;;;;;;;2.99;66.39;100733.31;4377920;32;34842;-67
2022/01/27 00:38:45;;;;;;;19.62;9.80;;;;;;;2.62;67.93;100732.13;4391500;32;34234;-68
2022/01/27 00:41:14;;;;;;;19.55;9.70;;;;;;;2.96;66.89;100723.78;4392123;32;34418;-68
2022/01/27 00:43:43;;;;;;;0.90;0.85;;;;;;;3.17;65.56;100730.38;4391293;32;34750;-68
2022/01/27 00:46:15;;;;;;;18.25;8.90;;;;;;;3.31;65.27;100721.59;4391516;32;34219;-68
2022/01/27 00:48:47;;;;;;;16.23;9.38;;;;;;;3.22;65.52;100730.69;4391559;32;34575;-68
2022/01/27 00:51:25;;;;;;;19.30;9.73;;;;;;;3.22;65.63;100733.38;4377895;32;34446;-70
2022/01/27 00:54:36;;;;;;;19.90;10.13;;;;;;;3.24;65.89;100742.91;4378368;32;33585;-67
2022/01/27 01:02:01;;;;;;;18.15;10.20;;;;;;;3.32;64.63;100735.81;4391442;32;33660;-68
2022/01/27 01:04:33;;;;;;;16.73;8.93;;;;;;;2.67;67.15;100733.28;4391261;32;34088;-68
2022/01/27 01:07:01;;;;;;;2.28;1.08;;;;;;;3.02;66.25;100735.66;4378137;32;33863;-68
2022/01/27 01:15:26;;;;;;;18.42;9.07;;;;;;;2.44;68.00;100721.63;4349989;32;33900;-68
2022/01/27 01:18:01;;;;;;;21.15;10.32;;;;;;;2.60;67.33;100720.75;4391152;32;35476;-68
2022/01/27 01:20:47;;;;;;;0.50;0.50;;;;;;;3.20;65.30;100704.06;4391275;32;34283;-68
2022/01/27 01:31:47;;;;;;;19.58;10.25;;;;;;;2.84;66.13;100693.03;4390964;32;34983;-68
2022/01/27 01:36:56;;;;;;;18.27;9.18;;;;;;;3.36;64.23;100699.59;4392692;32;33838;-68
2022/01/27 01:39:27;;;;;;;16.70;8.98;;;;;;;3.11;64.92;100696.22;4392999;32;33885;-68
2022/01/27 01:41:55;;;;;;;18.27;9.85;;;;;;;2.99;65.19;100693.94;4392889;32;34345;-67
2022/01/27 01:44:23;;;;;;;0.85;0.60;;;;;;;3.13;64.97;100692.34;4379105;32;34882;-67
2022/01/27 01:46:51;;;;;;;19.10;9.40;;;;;;;2.69;66.08;100700.97;4379706;32;33748;-68
2022/01/27 01:49:22;;;;;;;17.02;9.20;;;;;;;2.61;66.84;100693.81;4392563;32;34362;-69
2022/01/27 01:51:49;;;;;;;1.70;1.58;;;;;;;3.05;64.91;100677.16;4393154;32;34048;-68
2022/01/27 01:54:17;;;;;;;19.65;10.20;;;;;;;3.24;64.71;100691.97;4392815;32;34484;-68
2022/01/27 01:56:44;;;;;;;16.20;8.63;;;;;;;3.04;65.02;100690.72;4392769;32;33898;-68
2022/01/27 01:59:12;;;;;;;20.88;10.20;;;;;;;3.02;65.09;100701.66;4393133;32;35058;-68
2022/01/27 02:01:40;;;;;;;18.50;9.60;;;;;;;2.99;65.29;100699.31;4379341;32;33895;-67
2022/01/27 02:04:10;;;;;;;18.35;9.02;;;;;;;3.31;64.20;100704.66;4392532;32;33818;-67
2022/01/27 02:06:54;;;;;;;19.35;10.05;;;;;;;3.41;64.04;100699.88;4379467;32;33526;-68
2022/01/27 02:09:46;;;;;;;16.58;9.25;;;;;;;2.90;65.00;100696.84;4392706;32;34759;-68
2022/01/27 02:18:08;;;;;;;0.75;0.70;;;;;;;2.83;65.65;100696.69;4393057;32;34742;-68
2022/01/27 02:20:38;;;;;;;20.37;9.45;;;;;;;2.42;67.62;100688.84;4381684;32;34082;-68
2022/01/27 02:23:08;;;;;;;17.90;9.48;;;;;;;2.90;65.65;100675.41;4392017;32;33848;-67
2022/01/27 02:25:36;;;;;;;0.95;0.93;;;;;;;3.18;64.30;100665.03;4392795;32;33797;-68
2022/01/27 02:28:05;;;;;;;1.15;1.05;;;;;;;2.83;65.62;100668.06;4392822;32;33946;-67
2022/01/27 02:30:33;;;;;;;2.30;1.60;;;;;;;3.34;64.54;100661.38;4392615;32;34113;-68
2022/01/27 02:33:01;;;;;;;1.20;1.02;;;;;;;3.22;64.41;100666.34;4392154;32;34850;-68
2022/01/27 02:35:33;;;;;;;16.83;8.88;;;;;;;3.47;63.73;100673.16;4392662;32;34453;-68
2022/01/27 02:38:00;;;;;;;1.58;1.48;;;;;;;3.39;63.53;100664.34;4392473;32;33609;-67
2022/01/27 02:40:49;;;;;;;22.62;9.82;;;;;;;3.44;63.18;100656.63;4392646;32;34286;-68
2022/01/27 02:43:16;;;;;;;0.90;0.82;;;;;;;3.21;64.16;100653.94;4378804;32;34042;-67
2022/01/27 02:46:03;;;;;;;0.82;0.80;;;;;;;3.60;62.94;100635.00;4391926;32;33641;-67
2022/01/27 02:48:31;;;;;;;6.95;1.15;;;;;;;3.31;63.41;100632.25;4379191;32;34343;-68
2022/01/27 02:50:59;;;;;;;0.90;0.50;;;;;;;3.14;64.44;100637.72;4392540;32;34825;-68
2022/01/27 02:53:26;;;;;;;16.25;8.85;;;;;;;3.28;64.35;100645.00;4391944;32;34027;-68
2022/01/27 02:55:53;;;;;;;16.85;9.10;;;;;;;2.86;65.36;100640.06;4392298;32;33399;-68
2022/01/27 02:58:21;;;;;;;0.98;0.73;;;;;;;3.08;65.02;100631.22;4392478;32;34013;-67
2022/01/27 03:00:48;;;;;;;16.20;8.80;;;;;;;3.56;63.47;100635.53;4378864;32;35260;-68
2022/01/27 03:03:16;;;;;;;1.00;0.70;;;;;;;2.64;66.21;100642.53;4392182;32;34019;-67
2022/01/27 03:05:44;;;;;;;2.92;1.50;;;;;;;2.67;65.81;100639.50;4392456;32;33668;-67
2022/01/27 03:08:11;;;;;;;9.32;2.33;;;;;;;2.97;64.99;100642.34;4392083;32;34058;-68
2022/01/27 03:10:44;;;;;;;18.92;9.05;;;;;;;3.26;63.82;100638.97;4392217;32;34257;-68
2022/01/27 03:13:11;;;;;;;17.17;8.98;;;;;;;3.32;63.40;100647.31;4378457;32;33849;-67
2022/01/27 03:15:39;;;;;;;16.10;8.88;;;;;;;3.08;64.34;100652.66;4378395;32;33751;-68
2022/01/27 03:18:06;;;;;;;1.02;0.80;;;;;;;2.89;64.76;100661.16;4392496;32;34635;-68
2022/01/27 03:20:34;;;;;;;1.27;1.17;;;;;;;2.94;64.35;100658.81;4392582;32;34289;-68
2022/01/27 03:23:03;;;;;;;16.70;9.35;;;;;;;2.57;65.43;100664.81;4391985;32;34066;-68
2022/01/27 03:25:30;;;;;;;0.77;0.77;;;;;;;2.57;65.95;100654.13;4392276;32;34660;-68
2022/01/27 03:27:58;;;;;;;17.20;8.73;;;;;;;2.45;66.53;100657.19;4392328;32;34796;-67
2022/01/27 03:30:25;;;;;;;0.80;0.80;;;;;;;2.44;66.40;100660.87;4391904;32;34163;-68
2022/01/27 03:32:52;;;;;;;1.80;1.42;;;;;;;2.72;65.76;100651.53;4391751;32;34933;-68
2022/01/27 03:35:20;;;;;;;21.27;10.27;;;;;;;2.08;67.70;100656.97;4392209;32;33625;-68
2022/01/27 03:37:47;;;;;;;20.55;10.02;;;;;;;2.43;66.36;100647.66;4391923;32;33861;-67
2022/01/27 03:40:15;;;;;;;20.70;10.52;;;;;;;2.50;66.36;100653.16;4378831;32;33620;-68
2022/01/27 03:42:50;;;;;;;3.12;1.50;;;;;;;2.85;64.89;100647.28;4392167;32;34201;-68
2022/01/27 03:45:17;;;;;;;;;;;;;;;2.64;65.28;100649.75;4392515;32;33382;-68
2022/01/27 03:47:44;;;;;;;0.50;0.40;;;;;;;2.35;66.72;100645.00;4392292;32;35137;-68
2022/01/27 03:50:12;;;;;;;0.50;0.50;;;;;;;2.60;65.71;100643.91;4392109;32;34301;-69
2022/01/27 03:52:39;;;;;;;0.60;0.60;;;;;;;2.77;64.70;100627.75;4378422;32;34424;-68
2022/01/27 03:55:08;;;;;;;19.65;11.27;;;;;;;2.78;64.65;100621.34;4392071;32;34445;-68
2022/01/27 03:57:35;;;;;;;1.80;1.10;;;;;;;2.84;63.94;100620.66;4391609;32;34035;-69
2022/01/27 04:00:05;;;;;;;17.52;9.10;;;;;;;2.34;65.63;100629.97;4392026;32;35080;-68
2022/01/27 04:02:50;;;;;;;6.97;0.95;;;;;;;2.70;64.66;100621.41;4391652;32;34268;-69
2022/01/27 04:05:21;;;;;;;18.95;10.07;;;;;;;2.57;65.25;100620.16;4392046;32;34471;-68
2022/01/27 04:07:50;;;;;;;1.23;1.15;;;;;;;2.28;66.27;100618.09;4392114;32;33878;-69
2022/01/27 04:10:17;;;;;;;0.60;0.60;;;;;;;2.15;66.71;100628.50;4392000;32;35151;-68
2022/01/27 04:12:45;;;;;;;2.83;1.48;;;;;;;2.42;65.15;100621.91;4391781;32;33948;-68
2022/01/27 04:15:12;;;;;;;1.05;0.77;;;;;;;2.01;66.82;100627.37;4391996;32;33427;-68
2022/01/27 04:17:40;;;;;;;18.35;10.20;;;;;;;2.51;65.09;100628.88;4391776;32;34629;-68
2022/01/27 04:20:25;;;;;;;16.15;9.50;;;;;;;2.06;65.87;100625.03;4391814;32;35896;-69
2022/01/27 04:22:53;;;;;;;1.02;0.95;;;;;;;1.94;66.54;100621.84;4391490;32;35121;-68
2022/01/27 04:25:21;;;;;;;1.05;0.90;;;;;;;2.00;66.41;100628.38;4391894;32;33266;-68
2022/01/27 04:27:52;;;;;;;0.70;0.70;;;;;;;1.96;66.29;100629.72;4391771;32;34767;-68
2022/01/27 04:30:23;;;;;;;19.25;10.30;;;;;;;2.10;66.34;100634.38;4391567;32;34168;-70
2022/01/27 04:32:58;;;;;;;20.50;10.13;;;;;;;1.93;66.85;100632.75;4391564;32;34166;-68
2022/01/27 04:35:29;;;;;;;17.33;9.30;;;;;;;1.51;68.07;100626.63;4378938;32;33532;-68
2022/01/27 04:48:52;;;;;;;19.62;10.00;;;;;;;2.42;64.56;100629.94;4391767;32;34035;-67
2022/01/27 04:51:22;;;;;;;15.80;9.25;;;;;;;2.09;65.64;100624.66;4391485;32;34153;-68
2022/01/27 04:56:20;;;;;;;2.25;1.48;;;;;;;2.06;66.17;100630.37;4391797;32;33801;-67
2022/01/27 04:58:51;;;;;;;1.95;1.35;;;;;;;2.73;63.95;100634.47;4391210;32;34051;-68
2022/01/27 05:01:23;;;;;;;15.98;8.60;;;;;;;2.16;64.58;100636.38;4378484;32;33645;-69
2022/01/27 05:03:58;;;;;;;18.05;10.02;;;;;;;2.62;64.14;100631.16;4391246;32;34943;-67
2022/01/27 05:06:25;;;;;;;16.25;8.93;;;;;;;2.36;64.96;100620.72;4391454;32;34540;-67
2022/01/27 05:08:53;;;;;;;1.10;1.00;;;;;;;2.41;65.07;100626.38;4392866;32;33716;-67
2022/01/27 05:11:28;;;;;;;16.58;8.95;;;;;;;2.55;64.74;100619.47;4396199;32;34189;-67
2022/01/27 05:14:03;;;;;;;15.70;9.02;;;;;;;2.62;63.66;100609.72;4396127;32;33856;-67
2022/01/27 05:16:31;;;;;;;1.17;0.88;;;;;;;2.38;64.59;100615.22;4396472;32;33164;-67
2022/01/27 05:18:59;;;;;;;2.58;1.33;;;;;;;2.50;64.36;100611.13;4396358;32;33452;-67
2022/01/27 05:21:26;;;;;;;18.02;9.85;;;;;;;2.74;64.02;100614.69;4382619;32;34159;-67
2022/01/27 05:23:54;;;;;;;17.58;10.07;;;;;;;2.41;65.37;100620.22;4382039;32;34085;-67
2022/01/27 05:26:21;;;;;;;17.25;8.60;;;;;;;3.04;62.85;100623.72;4396704;32;33751;-71
2022/01/27 05:28:49;;;;;;;19.00;10.00;;;;;;;2.72;63.59;100620.25;4397112;32;33813;-70
2022/01/27 05:31:16;;;;;;;0.73;0.60;;;;;;;2.43;64.81;100615.50;4382771;32;34922;-69
2022/01/27 05:33:44;;;;;;;17.73;9.45;;;;;;;2.66;64.03;100619.09;4397028;32;34745;-71
2022/01/27 05:36:11;;;;;;;17.62;9.70;;;;;;;2.80;63.26;100616.66;4397054;32;33795;-68
2022/01/27 05:38:39;;;;;;;17.90;9.13;;;;;;;2.36;64.70;100626.09;4383244;32;33914;-68
2022/01/27 05:41:06;;;;;;;18.15;9.30;;;;;;;2.96;62.72;100618.41;4396969;32;34096;-70
2022/01/27 05:43:34;;;;;;;1.25;1.15;;;;;;;3.01;63.13;100616.84;4397273;32;34066;-68
2022/01/27 05:46:02;;;;;;;17.65;9.50;;;;;;;2.83;63.09;100601.06;4396794;32;33697;-69
2022/01/27 05:48:29;;;;;;;17.83;10.02;;;;;;;2.95;62.97;100609.53;4396906;32;34088;-70
2022/01/27 06:37:21;;;;;;;2.92;2.50;;;;;;;3.15;63.33;100609.87;4383494;32;33589;-70
2022/01/27 06:39:52;;;;;;;19.58;10.40;;;;;;;3.40;62.36;100621.25;4375754;32;36435;-70
2022/01/27 06:42:19;;;;;;;22.02;11.73;;;;;;;3.01;63.77;100624.06;4376600;32;34234;-70
2022/01/27 06:44:47;;;;;;;2.47;1.77;;;;;;;2.94;63.96;100623.94;4378770;32;33917;-72
2022/01/27 06:47:15;;;;;;;2.45;2.25;;;;;;;3.33;63.09;100627.53;4378845;32;34357;-72
2022/01/27 06:49:42;;;;;;;0.98;0.88;;;;;;;3.47;62.47;100634.78;4377141;32;34154;-72
2022/01/27 06:52:10;;;;;;;22.92;12.63;;;;;;;3.55;62.41;100640.09;4377344;32;34842;-74
2022/01/27 06:54:38;;;;;;;1.55;1.30;;;;;;;3.04;63.39;100643.31;4376659;32;33664;-75
2022/01/27 06:57:06;;;;;;;1.27;1.02;;;;;;;3.44;62.67;100649.41;4378435;32;34149;-74
2022/01/27 06:59:34;;;;;;;4.30;2.58;;;;;;;3.54;62.36;100653.66;4377105;32;34996;-73
2022/01/27 07:02:02;;;;;;;21.35;12.40;;;;;;;3.79;61.31;100657.00;4377442;32;34299;-79
2022/01/27 07:04:30;;;;;;;18.70;11.50;;;;;;;3.57;62.07;100650.66;4378269;32;34620;-79
2022/01/27 07:06:57;;;;;;;1.10;0.88;;;;;;;3.74;61.74;100645.94;4378468;32;33915;-79
2022/01/27 07:09:25;;;;;;;2.35;1.55;;;;;;;3.36;62.79;100640.56;4375430;32;34683;-72
2022/01/27 07:11:52;;;;;;;22.55;11.27;;;;;;;3.56;62.32;100639.06;4357779;32;34629;-68
2022/01/27 07:14:23;;;;;;;21.70;11.65;;;;;;;3.38;62.75;100650.09;4376964;32;33305;-68
2022/01/27 07:16:51;;;;;;;21.40;10.98;;;;;;;3.61;61.82;100638.53;4377351;32;34587;-67
2022/01/27 07:19:19;;;;;;;19.37;10.68;;;;;;;3.50;62.19;100639.81;4377279;32;34931;-69
2022/01/27 07:21:46;;;;;;;20.52;10.93;;;;;;;3.55;61.89;100642.78;4376961;32;33915;-68
2022/01/27 07:24:14;;;;;;;1.45;1.35;;;;;;;3.46;62.22;100635.81;4377053;32;33664;-68
2022/01/27 07:26:41;;;;;;;21.42;11.57;;;;;;;3.29;62.99;100633.25;4376153;32;33823;-68
2022/01/27 07:29:09;;;;;;;20.90;11.52;;;;;;;3.71;61.15;100631.03;4376940;32;35055;-68
2022/01/27 07:31:36;;;;;;;22.33;12.30;;;;;;;3.76;61.15;100623.28;4375863;32;34982;-70
2022/01/27 07:34:04;;;;;;;25.05;12.88;;;;;;;3.68;61.74;100626.06;4377059;32;33459;-71
2022/01/27 07:36:31;;;;;;;24.58;13.07;;;;;;;3.12;63.24;100620.16;4377004;32;33142;-70
2022/01/27 07:39:01;;;;;;;3.83;1.77;;;;;;;2.95;63.43;100620.25;4375642;32;35178;-70
2022/01/27 07:41:28;;;;;;;1.40;1.12;;;;;;;3.33;63.19;100614.97;4376603;32;34186;-70
2022/01/27 07:43:55;;;;;;;0.60;0.60;;;;;;;3.11;63.08;100618.47;4377015;32;33666;-69
2022/01/27 07:46:23;;;;;;;21.05;11.10;;;;;;;3.68;61.51;100608.09;4375694;32;33275;-71
2022/01/27 07:48:51;;;;;;;24.08;11.35;;;;;;;3.46;61.84;100608.97;4362097;32;33820;-67
2022/01/27 07:51:18;;;;;;;2.40;1.37;;;;;;;3.60;61.58;100601.97;4360158;32;34419;-68
2022/01/27 07:53:47;;;;;;;17.95;10.23;;;;;;;3.52;61.01;100600.22;4361045;32;34056;-68
2022/01/27 07:56:30;;;;;;;1.30;1.05;;;;;;;3.37;62.13;100602.84;4365557;32;33709;-68
2022/01/27 07:58:57;;;;;;;22.90;12.25;;;;;;;3.65;61.25;100595.06;4375117;32;34086;-68
2022/01/27 08:01:25;;;;;;;17.95;10.27;;;;;;;3.69;60.66;100587.44;4375433;32;33951;-68
2022/01/27 08:03:53;;;;;;;20.30;10.93;;;;;;;3.37;61.81;100602.00;4376611;32;34439;-67
2022/01/27 08:06:20;;;;;;;0.85;0.82;;;;;;;3.45;61.71;100588.53;4376725;32;33485;-69
2022/01/27 08:08:50;;;;;;;9.98;2.58;;;;;;;3.58;61.46;100596.78;4375622;32;35024;-68
2022/01/27 08:11:19;;;;;;;1.85;1.02;;;;;;;3.46;62.03;100601.75;4376349;32;34045;-67
2022/01/27 08:13:46;;;;;;;19.15;10.23;;;;;;;3.92;60.34;100597.31;4363067;32;33205;-70
2022/01/27 08:16:14;;;;;;;18.67;10.27;;;;;;;3.54;61.08;100589.28;4375696;32;33852;-68
2022/01/27 08:18:46;;;;;;;18.27;10.48;;;;;;;3.65;61.26;100600.41;4376277;32;34878;-68
2022/01/27 08:21:13;;;;;;;1.48;1.37;;;;;;;3.81;60.77;100602.09;4375567;32;34923;-69
2022/01/27 08:23:43;;;;;;;20.27;11.45;;;;;;;3.64;61.14;100595.22;4376828;32;34201;-68
2022/01/27 08:26:15;;;;;;;22.30;13.00;;;;;;;3.75;60.29;100599.31;4375015;32;33581;-68
2022/01/27 08:31:11;;;;;;;27.85;15.10;;;;;;;4.10;60.02;100597.75;4365406;32;34044;-67
2022/01/27 08:33:40;;;;;;;21.40;10.98;;;;;;;3.78;61.56;100605.16;4361212;32;33719;-67
2022/01/27 08:36:08;;;;;;;24.42;12.07;;;;;;;4.19;60.67;100596.66;4361607;32;33621;-67
2022/01/27 08:38:43;;;;;;;20.00;10.82;;;;;;;4.65;59.03;100593.69;4360185;32;34042;-66
2022/01/27 08:41:11;;;;;;;21.55;10.32;;;;;;;5.20;57.03;100585.16;4360980;32;34246;-67
2022/01/27 08:43:38;;;;;;;1.77;1.60;;;;;;;5.02;57.28;100591.00;4360252;32;33738;-67
2022/01/27 08:46:06;;;;;;;18.00;9.32;;;;;;;5.02;57.24;100589.13;4361601;32;34565;-66
2022/01/27 08:48:38;;;;;;;16.50;9.25;;;;;;;4.21;59.01;100578.50;4360968;32;35101;-66
2022/01/27 08:51:10;;;;;;;20.37;10.13;;;;;;;5.11;56.21;100579.91;4361457;32;34157;-68
2022/01/27 08:53:49;;;;;;;18.25;10.02;;;;;;;5.03;57.37;100593.50;4360015;32;34413;-67
2022/01/27 08:56:17;;;;;;;18.52;9.95;;;;;;;4.82;57.76;100591.62;4361119;32;34828;-67
2022/01/27 08:58:45;;;;;;;1.12;1.05;;;;;;;4.90;57.64;100604.09;4361347;32;34182;-66
2022/01/27 09:01:12;;;;;;;17.35;9.98;;;;;;;5.03;57.04;100598.03;4361170;32;33684;-66
2022/01/27 09:03:40;;;;;;;3.22;1.95;;;;;;;5.44;55.33;100595.53;4360973;32;34743;-67
2022/01/27 09:06:08;;;;;;;18.75;10.50;;;;;;;5.10;56.29;100594.38;4361332;32;34049;-66
2022/01/27 09:08:41;;;;;;;15.43;9.02;;;;;;;4.61;57.16;100592.41;4361022;32;34349;-67
2022/01/27 09:11:09;;;;;;;17.45;9.63;;;;;;;4.80;57.18;100593.66;4362033;32;35675;-66
2022/01/27 09:13:37;;;;;;;17.83;9.30;;;;;;;4.95;57.28;100601.69;4361039;32;34616;-67
2022/01/27 09:16:06;;;;;;;20.85;9.93;;;;;;;4.72;57.92;100586.53;4362064;32;34886;-66
2022/01/27 09:18:35;;;;;;;15.88;8.65;;;;;;;4.83;57.56;100595.12;4362193;32;34088;-67
2022/01/27 09:21:09;;;;;;;16.55;8.32;;;;;;;5.11;56.35;100600.59;4362612;32;34208;-66
2022/01/27 09:23:37;;;;;;;15.15;7.85;;;;;;;4.87;57.83;100604.50;4362150;32;33369;-67
2022/01/27 09:26:09;;;;;;;18.05;9.32;;;;;;;5.33;56.67;100604.97;4362098;32;33843;-67
2022/01/27 09:28:36;;;;;;;19.75;9.27;;;;;;;6.11;54.04;100596.84;4362095;32;34161;-66
2022/01/27 09:31:04;;;;;;;16.05;8.80;;;;;;;6.06;54.53;100599.28;4360770;32;34167;-67
2022/01/27 09:33:31;;;;;;;17.40;8.82;;;;;;;5.85;53.41;100608.28;4364030;32;33338;-70
2022/01/27 09:35:59;;;;;;;17.05;9.25;;;;;;;5.95;54.63;100606.06;4375450;32;34079;-72
2022/01/27 09:38:26;;;;;;;18.35;9.45;;;;;;;6.24;54.13;100612.28;4375581;32;33847;-72
2022/01/27 09:40:54;;;;;;;17.23;9.43;;;;;;;6.25;53.73;100607.69;4375728;32;32596;-74
2022/01/27 09:43:22;;;;;;;14.85;8.32;;;;;;;6.74;51.55;100598.59;4375575;32;33687;-73
2022/01/27 09:45:51;;;;;;;16.70;8.55;;;;;;;6.61;51.47;100599.37;4363396;32;34686;-74
2022/01/27 09:48:20;;;;;;;17.12;8.07;;;;;;;6.87;51.27;100590.53;4376580;32;34040;-73
2022/01/27 09:53:16;;;;;;;14.25;7.75;;;;;;;5.64;54.05;100584.91;4376644;32;33795;-71
2022/01/27 09:55:44;;;;;;;15.65;7.57;;;;;;;5.72;54.59;100589.31;4376509;32;33118;-72
2022/01/27 09:58:12;;;;;;;16.27;8.88;;;;;;;6.05;54.39;100592.25;4378641;32;34019;-74
2022/01/27 10:00:39;;;;;;;11.50;7.18;;;;;;;6.44;51.52;100593.50;4377413;32;34243;-73
2022/01/27 10:03:13;;;;;;;19.35;8.75;;;;;;;6.32;52.73;100595.09;4378210;32;33646;-73
2022/01/27 10:05:42;;;;;;;17.20;8.88;;;;;;;7.06;50.71;100590.75;4377459;32;34742;-69
2022/01/27 10:08:15;;;;;;;17.05;9.05;;;;;;;7.42;50.03;100586.84;4378958;32;34044;-71
2022/01/27 10:10:45;;;;;;;16.62;8.90;;;;;;;7.29;50.36;100587.69;4378841;32;35086;-68
2022/01/27 10:13:33;;;;;;;16.52;8.35;;;;;;;6.81;50.67;100574.31;4378712;32;33874;-69
2022/01/27 10:16:01;;;;;;;19.85;11.00;;;;;;;7.09;50.84;100563.38;4377104;32;34966;-69
2022/01/27 10:18:35;;;;;;;20.37;12.68;;;;;;;6.83;50.68;100556.91;4377802;32;34183;-73
2022/01/27 10:21:05;;;;;;;14.98;8.25;;;;;;;6.99;50.93;100547.56;4378717;32;34127;-70
2022/01/27 10:23:38;;;;;;;16.05;8.68;;;;;;;6.03;52.78;100542.31;4377334;32;33829;-68
2022/01/27 10:26:18;;;;;;;17.10;9.40;;;;;;;7.32;50.52;100538.66;4378715;32;34687;-67
2022/01/27 10:29:12;;;;;;;27.80;16.37;;;;;;;6.54;52.74;100523.00;4378608;32;33880;-67
2022/01/27 10:31:41;;;;;;;15.07;7.97;;;;;;;7.89;48.43;100523.62;4378077;32;35063;-68
2022/01/27 10:34:10;;;;;;;18.33;9.57;;;;;;;6.85;51.16;100527.03;4376679;32;34629;-72
2022/01/27 10:36:44;;;;;;;21.52;10.80;;;;;;;7.67;48.78;100514.97;4377689;32;33779;-67
2022/01/27 10:39:20;;;;;;;22.50;10.38;;;;;;;8.13;47.81;100516.69;4378418;32;34147;-71
2022/01/27 10:42:07;;;;;;;18.17;9.40;;;;;;;8.47;46.64;100508.47;4378605;32;34919;-70
2022/01/27 10:44:40;;;;;;;16.35;8.60;;;;;;;8.83;46.40;100502.41;4378606;32;33746;-70
2022/01/27 10:47:18;;;;;;;16.83;8.70;;;;;;;8.00;46.80;100498.66;4378625;32;34075;-70
2022/01/27 10:49:51;;;;;;;18.12;9.38;;;;;;;8.06;47.07;100496.16;4378628;32;34325;-71
2022/01/27 10:52:29;;;;;;;15.63;8.80;;;;;;;8.72;45.79;100497.69;4378849;32;35080;-70
2022/01/27 10:55:00;;;;;;;19.90;10.85;;;;;;;9.05;45.08;100483.94;4378188;32;33476;-71
2022/01/27 10:57:27;;;;;;;18.50;9.65;;;;;;;8.56;45.35;100483.66;4378782;32;33905;-70
2022/01/27 11:00:14;;;;;;;18.65;8.77;;;;;;;8.54;45.99;100482.22;4378804;32;34206;-70
2022/01/27 11:02:58;;;;;;;17.15;8.95;;;;;;;8.61;45.07;100489.22;4378541;32;34314;-70
2022/01/27 11:05:31;;;;;;;18.27;9.18;;;;;;;8.50;45.66;100492.62;4378211;32;33739;-70
2022/01/27 11:07:58;;;;;;;18.83;9.65;;;;;;;8.13;46.89;100488.84;4377862;32;33944;-70
2022/01/27 11:10:27;;;;;;;17.77;8.98;;;;;;;7.62;47.35;100481.53;4378656;32;35006;-70
2022/01/27 11:12:56;;;;;;;16.08;8.90;;;;;;;7.48;48.35;100484.25;4378654;32;35039;-70
2022/01/27 11:15:25;;;;;;;18.55;9.65;;;;;;;7.20;48.11;100476.41;4377302;32;33642;-71
2022/01/27 11:17:54;;;;;;;17.70;9.65;;;;;;;7.45;48.07;100473.88;4377481;32;34070;-70
2022/01/27 11:21:00;;;;;;;15.73;9.02;;;;;;;7.33;47.72;100459.38;4373185;32;34257;-70
2022/01/27 11:26:10;;;;;;;24.45;12.00;;;;;;;7.49;48.82;100464.28;4362138;32;33895;-74
2022/01/27 11:28:43;;;;;;;19.00;10.38;;;;;;;7.81;48.14;100459.03;4363128;32;33992;-70
2022/01/27 11:31:29;;;;;;;17.58;9.20;;;;;;;7.97;47.70;100455.03;4362129;32;34830;-74
2022/01/27 11:34:02;;;;;;;20.55;11.85;;;;;;;8.15;47.55;100459.72;4361885;32;33992;-74
2022/01/27 11:36:31;;;;;;;22.97;11.10;;;;;;;8.05;48.50;100445.84;4361916;32;32147;-73
2022/01/27 11:39:00;;;;;;;19.87;10.40;;;;;;;8.40;47.35;100439.03;4361643;32;33742;-74
2022/01/27 11:41:47;;;;;;;22.60;14.13;;;;;;;8.53;47.09;100431.88;4362173;32;34103;-73
2022/01/27 11:44:32;;;;;;;23.75;14.65;;;;;;;8.90;45.09;100429.28;4361935;32;33983;-73
2022/01/27 11:47:14;;;;;;;24.75;12.45;;;;;;;9.28;44.87;100421.03;4350164;32;34644;-73
2022/01/27 11:50:11;;;;;;;22.13;11.63;;;;;;;9.37;44.36;100421.56;4363166;32;33400;-73
2022/01/27 11:52:52;;;;;;;18.15;10.77;;;;;;;8.66;45.30;100423.69;4363033;32;35095;-71
2022/01/27 11:55:23;;;;;;;23.45;13.25;;;;;;;8.11;46.88;100409.84;4361845;32;34275;-71
2022/01/27 11:57:55;;;;;;;19.77;11.02;;;;;;;8.25;45.85;100414.16;4363255;32;34520;-74
2022/01/27 12:00:31;;;;;;;23.77;14.25;;;;;;;7.82;47.58;100414.78;4363391;32;34853;-71
2022/01/27 12:03:02;;;;;;;22.23;12.93;;;;;;;8.12;47.21;100415.03;4363080;32;35146;-73
2022/01/27 12:05:33;;;;;;;20.65;12.40;;;;;;;8.14;46.94;100412.09;4362917;32;34166;-73
2022/01/27 12:08:12;;;;;;;24.08;11.60;;;;;;;8.51;46.69;100410.47;4363061;32;34597;-72
2022/01/27 12:10:58;;;;;;;18.25;10.57;;;;;;;8.54;46.56;100411.91;4362904;32;34760;-71
2022/01/27 12:19:02;;;;;;;19.98;10.82;;;;;;;8.89;44.96;100409.53;4366421;32;33751;-75
2022/01/27 12:21:35;;;;;;;20.23;10.77;;;;;;;8.90;45.21;100413.91;4377741;32;34066;-69
2022/01/27 12:24:18;;;;;;;19.48;10.30;;;;;;;8.98;45.61;100407.38;4377759;32;34203;-74
2022/01/27 12:26:56;;;;;;;20.65;10.93;;;;;;;9.39;44.18;100408.62;4377651;32;33944;-71
2022/01/27 12:29:31;;;;;;;19.87;10.32;;;;;;;9.03;45.46;100405.66;4377873;32;33729;-72
2022/01/27 12:32:23;;;;;;;18.83;10.15;;;;;;;9.61;43.33;100398.16;4376666;32;34851;-73
2022/01/27 12:34:55;;;;;;;18.17;9.98;;;;;;;9.02;43.73;100395.06;4376880;32;34338;-77
2022/01/27 12:37:34;;;;;;;19.45;10.60;;;;;;;8.54;45.76;100401.09;4372669;32;34289;-68
2022/01/27 12:40:14;;;;;;;23.00;13.50;;;;;;;8.66;45.11;100383.09;4359933;32;34043;-68
2022/01/27 12:42:57;;;;;;;17.62;9.65;;;;;;;8.63;46.40;100381.62;4361542;32;33768;-68
2022/01/27 12:45:33;;;;;;;21.98;10.82;;;;;;;9.19;44.05;100382.59;4361205;32;34275;-69
2022/01/27 12:48:11;;;;;;;19.40;10.68;;;;;;;8.87;45.53;100372.91;4361054;32;35096;-68
2022/01/27 12:50:39;;;;;;;21.30;10.85;;;;;;;9.78;44.10;100365.87;4359081;32;33263;-69
2022/01/27 12:53:12;;;;;;;19.35;9.65;;;;;;;10.08;43.45;100357.75;4360634;32;34710;-68
2022/01/27 12:55:42;;;;;;;19.42;10.07;;;;;;;9.85;43.33;100351.19;4361119;32;34113;-68
2022/01/27 12:58:17;;;;;;;20.55;9.65;;;;;;;9.83;43.97;100345.16;4359793;32;34073;-70
2022/01/27 13:00:46;;;;;;;19.02;9.85;;;;;;;10.37;42.26;100347.16;4361412;32;33642;-71
2022/01/27 13:03:15;;;;;;;18.25;9.65;;;;;;;9.85;42.75;100334.09;4359586;32;34075;-70
2022/01/27 13:05:49;;;;;;;17.45;9.48;;;;;;;10.29;41.88;100325.75;4360259;32;35242;-70
2022/01/27 13:08:20;;;;;;;19.55;10.32;;;;;;;9.76;42.69;100317.34;4347744;32;34371;-70
2022/01/27 13:10:50;;;;;;;19.98;10.48;;;;;;;9.55;43.82;100313.25;4361035;32;33455;-72
2022/01/27 13:13:23;;;;;;;18.15;10.07;;;;;;;8.57;46.71;100316.78;4360030;32;33921;-70
2022/01/27 13:16:03;;;;;;;24.02;11.90;;;;;;;8.84;45.68;100295.72;4361137;32;34742;-70
2022/01/27 13:18:59;;;;;;;20.92;11.63;;;;;;;9.08;46.12;100291.31;4359461;32;34915;-69
2022/01/27 13:21:29;;;;;;;20.98;11.55;;;;;;;8.23;47.94;100286.47;4359781;32;34378;-70
2022/01/27 13:24:14;;;;;;;23.87;11.32;;;;;;;7.68;49.63;100289.75;4359429;32;33972;-69